createdAt,value
2022-11-10T00:00:53.983Z,101053.50
2022-11-10T00:03:40.089Z,101061.81
2022-11-10T00:06:24.966Z,101059.56
2022-11-10T00:09:10.305Z,101057.13
2022-11-10T00:11:55.399Z,101068.97
2022-11-10T00:14:59.066Z,101074.81
2022-11-10T00:17:44.946Z,101079.41
2022-11-10T00:20:30.288Z,101084.34
2022-11-10T00:23:15.661Z,101085.81
2022-11-10T00:26:00.586Z,101088.78
2022-11-10T00:28:45.566Z,101093.28
2022-11-10T00:31:30.405Z,101094.13
2022-11-10T00:34:16.949Z,101090.44
2022-11-10T00:37:02.978Z,101087.88
2022-11-10T00:39:48.242Z,101094.97
2022-11-10T00:42:33.429Z,101094.09
2022-11-10T00:45:18.221Z,101096.00
2022-11-10T00:48:03.123Z,101098.28
2022-11-10T00:50:48.153Z,101091.53
2022-11-10T00:53:33.414Z,101100.78
2022-11-10T00:56:18.659Z,101107.47
2022-11-10T00:59:03.632Z,101110.56
2022-11-10T01:01:48.528Z,101105.53
2022-11-10T01:04:33.578Z,101112.81
2022-11-10T01:07:18.493Z,101116.44
2022-11-10T01:10:04.151Z,101119.53
2022-11-10T01:12:49.308Z,101121.00
2022-11-10T01:15:34.360Z,101113.38
2022-11-10T01:18:19.231Z,101124.31
2022-11-10T01:21:05.114Z,101124.03
2022-11-10T01:23:49.983Z,101130.28
2022-11-10T01:26:34.925Z,101133.31
2022-11-10T01:29:19.974Z,101140.16
2022-11-10T01:32:05.400Z,101135.69
2022-11-10T01:34:50.432Z,101141.84
2022-11-10T01:37:35.586Z,101142.69
2022-11-10T01:40:21.268Z,101154.19
2022-11-10T01:43:06.113Z,101156.22
2022-11-10T01:45:50.833Z,101160.69
2022-11-10T01:48:51.051Z,101158.41
2022-11-10T01:51:59.584Z,101165.72
2022-11-10T01:54:48.695Z,101171.34
2022-11-10T01:57:34.354Z,101170.19
2022-11-10T02:00:20.218Z,101167.44
2022-11-10T02:03:16.376Z,101169.34
2022-11-10T02:06:01.650Z,101171.34
2022-11-10T02:08:47.388Z,101184.88
2022-11-10T02:11:33.996Z,101189.59
2022-11-10T02:14:18.816Z,101192.13
2022-11-10T02:17:04.032Z,101185.38
2022-11-10T02:19:51.374Z,101196.38
2022-11-10T02:22:37.259Z,101199.72
2022-11-10T02:25:25.265Z,101196.94
2022-11-10T02:28:10.502Z,101202.22
2022-11-10T02:30:55.342Z,101205.06
2022-11-10T02:33:40.557Z,101212.09
2022-11-10T02:36:25.599Z,101209.63
2022-11-10T02:39:10.590Z,101218.88
2022-11-10T02:41:55.619Z,101212.41
2022-11-10T02:44:41.425Z,101212.63
2022-11-10T02:47:26.669Z,101217.44
2022-11-10T02:50:11.556Z,101219.41
2022-11-10T02:52:56.583Z,101225.31
2022-11-10T02:55:42.155Z,101221.34
2022-11-10T02:58:27.345Z,101228.44
2022-11-10T03:01:12.261Z,101232.06
2022-11-10T03:03:57.516Z,101233.44
2022-11-10T03:06:42.469Z,101234.88
2022-11-10T03:09:27.263Z,101240.50
2022-11-10T03:12:12.251Z,101243.59
2022-11-10T03:14:57.126Z,101250.88
2022-11-10T03:17:43.060Z,101251.44
2022-11-10T03:20:27.823Z,101259.59
2022-11-10T03:23:12.731Z,101268.00
2022-11-10T03:25:57.556Z,101264.41
2022-11-10T03:28:42.346Z,101274.81
2022-11-10T03:31:27.300Z,101288.03
2022-11-10T03:34:12.187Z,101292.00
2022-11-10T03:36:57.143Z,101297.38
2022-11-10T03:39:42.185Z,101288.06
2022-11-10T03:42:27.130Z,101291.19
2022-11-10T03:45:14.258Z,101298.78
2022-11-10T03:47:59.661Z,101301.59
2022-11-10T03:50:44.914Z,101307.75
2022-11-10T03:53:29.690Z,101306.09
2022-11-10T03:56:14.546Z,101313.38
2022-11-10T03:58:59.425Z,101311.44
2022-11-10T04:01:44.412Z,101309.19
2022-11-10T04:04:48.202Z,101317.63
2022-11-10T04:07:52.042Z,101327.47
2022-11-10T04:10:37.281Z,101323.00
2022-11-10T04:13:40.866Z,101331.41
2022-11-10T04:16:26.011Z,101337.28
2022-11-10T04:19:11.049Z,101341.50
2022-11-10T04:21:56.658Z,101344.63
2022-11-10T04:24:41.658Z,101349.66
2022-11-10T04:27:26.790Z,101351.34
2022-11-10T04:30:11.945Z,101355.84
2022-11-10T04:32:56.978Z,101362.59
2022-11-10T04:35:42.614Z,101367.63
2022-11-10T04:38:27.574Z,101366.50
2022-11-10T04:41:12.908Z,101369.88
2022-11-10T04:43:58.654Z,101369.31
2022-11-10T04:46:45.454Z,101357.22
2022-11-10T04:49:30.100Z,101367.91
2022-11-10T04:52:15.098Z,101363.97
2022-11-10T04:54:59.940Z,101366.50
2022-11-10T04:57:45.022Z,101374.09
2022-11-10T05:00:30.411Z,101372.69
2022-11-10T05:03:15.710Z,101378.56
2022-11-10T05:06:00.565Z,101374.34
2022-11-10T05:08:47.313Z,101378.84
2022-11-10T05:11:32.393Z,101390.63
2022-11-10T05:14:17.265Z,101400.16
2022-11-10T05:17:02.125Z,101398.47
2022-11-10T05:19:47.419Z,101402.94
2022-11-10T05:22:32.730Z,101407.72
2022-11-10T05:25:17.957Z,101414.44
2022-11-10T05:28:03.591Z,101425.63
2022-11-10T05:30:48.443Z,101429.84
2022-11-10T05:33:34.726Z,101428.16
2022-11-10T05:36:19.499Z,101437.63
2022-11-10T05:39:04.542Z,101445.53
2022-11-10T05:41:49.432Z,101436.84
2022-11-10T05:44:34.467Z,101454.22
2022-11-10T05:47:19.265Z,101456.66
2022-11-10T05:50:04.947Z,101461.69
2022-11-10T05:52:53.173Z,101476.88
2022-11-10T05:55:38.240Z,101486.06
2022-11-10T05:58:23.175Z,101488.34
2022-11-10T06:01:08.121Z,101497.31
2022-11-10T06:03:53.441Z,101498.94
2022-11-10T06:06:38.146Z,101502.00
2022-11-10T06:09:23.534Z,101502.31
2022-11-10T06:12:08.455Z,101512.34
2022-11-10T06:14:53.333Z,101511.84
2022-11-10T06:17:38.414Z,101520.47
2022-11-10T06:20:24.501Z,101527.75
2022-11-10T06:23:11.372Z,101528.88
2022-11-10T06:25:56.599Z,101538.66
2022-11-10T06:28:41.446Z,101547.63
2022-11-10T06:31:26.699Z,101550.41
2022-11-10T06:34:11.448Z,101551.81
2022-11-10T06:36:56.423Z,101565.28
2022-11-10T06:39:41.151Z,101562.13
2022-11-10T06:42:26.302Z,101584.28
2022-11-10T06:45:11.461Z,101587.06
2022-11-10T06:48:00.910Z,101594.94
2022-11-10T06:50:45.866Z,101610.06
2022-11-10T06:53:30.908Z,101614.81
2022-11-10T06:56:16.218Z,101612.56
2022-11-10T06:59:01.174Z,101614.88
2022-11-10T07:01:46.072Z,101621.88
2022-11-10T07:04:31.053Z,101630.31
2022-11-10T07:07:16.208Z,101635.66
2022-11-10T07:10:06.574Z,101642.09
2022-11-10T07:12:56.483Z,101649.47
2022-11-10T07:15:41.809Z,101653.09
2022-11-10T07:18:26.999Z,101664.56
2022-11-10T07:21:12.007Z,101665.16
2022-11-10T07:23:56.893Z,101661.78
2022-11-10T07:26:41.796Z,101671.59
2022-11-10T07:29:26.726Z,101662.63
2022-11-10T07:32:11.646Z,101679.72
2022-11-10T07:34:56.582Z,101691.84
2022-11-10T07:37:41.701Z,101695.81
2022-11-10T07:40:26.698Z,101696.03
2022-11-10T07:43:11.498Z,101702.88
2022-11-10T07:45:56.442Z,101711.03
2022-11-10T07:48:41.379Z,101713.25
2022-11-10T07:51:26.964Z,101707.34
2022-11-10T07:54:12.378Z,101716.16
2022-11-10T07:56:57.464Z,101723.72
2022-11-10T07:59:42.365Z,101712.25
2022-11-10T08:02:27.412Z,101722.09
2022-11-10T08:05:12.535Z,101733.63
2022-11-10T08:07:57.417Z,101734.81
2022-11-10T08:10:43.186Z,101740.16
2022-11-10T08:13:28.247Z,101738.53
2022-11-10T08:16:13.218Z,101743.56
2022-11-10T08:18:58.069Z,101742.19
2022-11-10T08:21:42.842Z,101744.72
2022-11-10T08:24:27.735Z,101744.69
2022-11-10T08:27:12.478Z,101751.22
2022-11-10T08:29:57.849Z,101749.00
2022-11-10T08:32:42.684Z,101756.03
2022-11-10T08:35:30.814Z,101754.38
2022-11-10T08:38:19.284Z,101754.91
2022-11-10T08:41:04.472Z,101761.69
2022-11-10T08:43:49.384Z,101768.97
2022-11-10T08:46:34.391Z,101776.28
2022-11-10T08:49:19.263Z,101779.44
2022-11-10T08:52:04.457Z,101786.16
2022-11-10T08:54:49.543Z,101791.56
2022-11-10T08:57:34.456Z,101796.31
2022-11-10T09:00:19.583Z,101810.41
2022-11-10T09:03:07.905Z,101808.94
2022-11-10T09:10:06.768Z,101826.38
2022-11-10T09:12:52.638Z,101830.34
2022-11-10T09:15:38.299Z,101841.59
2022-11-10T09:18:23.553Z,101843.56
2022-11-10T09:21:11.801Z,101830.72
2022-11-10T09:23:56.902Z,101830.97
2022-11-10T09:26:45.176Z,101833.84
2022-11-10T09:29:30.282Z,101837.50
2022-11-10T09:32:15.089Z,101844.81
2022-11-10T09:35:00.629Z,101858.34
2022-11-10T09:37:45.530Z,101844.75
2022-11-10T09:41:02.565Z,101853.53
2022-11-10T09:44:15.751Z,101856.88
2022-11-10T09:47:05.047Z,101866.69
2022-11-10T09:49:56.788Z,101867.38
2022-11-10T09:52:43.971Z,101861.44
2022-11-10T09:55:41.013Z,101863.19
2022-11-10T09:58:33.428Z,101861.53
2022-11-10T10:01:33.230Z,101859.59
2022-11-10T10:04:41.965Z,101862.09
2022-11-10T10:07:50.064Z,101858.47
2022-11-10T10:10:47.042Z,101864.69
2022-11-10T10:13:52.297Z,101867.50
2022-11-10T10:17:11.462Z,101868.63
2022-11-10T10:20:19.488Z,101869.19
2022-11-10T10:23:53.926Z,101867.78
2022-11-10T10:26:38.098Z,101872.56
2022-11-10T10:29:44.899Z,101873.97
2022-11-10T10:32:29.882Z,101873.97
2022-11-10T10:35:16.706Z,101876.22
2022-11-10T10:38:02.502Z,101890.03
2022-11-10T10:40:50.318Z,101887.22
2022-11-10T10:43:35.506Z,101894.25
2022-11-10T10:46:27.670Z,101895.38
2022-11-10T10:49:32.170Z,101890.88
2022-11-10T10:52:20.253Z,101888.91
2022-11-10T10:55:08.190Z,101894.81
2022-11-10T10:57:59.249Z,101895.94
2022-11-10T11:00:45.676Z,101899.59
2022-11-10T11:03:49.919Z,101895.41
2022-11-10T11:06:35.812Z,101886.66
2022-11-10T11:09:26.691Z,101889.19
2022-11-10T11:12:14.497Z,101894.84
2022-11-10T11:15:26.471Z,101897.63
2022-11-10T11:18:16.717Z,101892.84
2022-11-10T11:21:14.146Z,101896.22
2022-11-10T11:24:24.357Z,101894.28
2022-11-10T11:27:34.080Z,101893.97
2022-11-10T11:30:28.413Z,101893.75
2022-11-10T11:33:35.059Z,101901.06
2022-11-10T11:36:51.440Z,101892.03
2022-11-10T11:39:53.818Z,101892.03
2022-11-10T11:43:03.874Z,101893.97
2022-11-10T11:45:57.308Z,101892.00
2022-11-10T11:48:52.426Z,101899.03
2022-11-10T11:51:57.623Z,101897.66
2022-11-10T11:55:12.931Z,101905.22
2022-11-10T11:58:14.974Z,101903.56
2022-11-10T12:01:15.866Z,101903.81
2022-11-10T12:04:19.451Z,101901.00
2022-11-10T12:07:23.331Z,101905.47
2022-11-10T12:10:27.356Z,101903.75
2022-11-10T12:13:34.823Z,101905.44
2022-11-10T12:16:28.336Z,101907.13
2022-11-10T12:19:35.054Z,101917.78
2022-11-10T12:22:33.436Z,101911.88
2022-11-10T12:25:33.417Z,101925.69
2022-11-10T12:28:25.974Z,101920.88
2022-11-10T12:31:18.064Z,101927.88
2022-11-10T12:34:28.396Z,101927.91
2022-11-10T12:37:28.231Z,101925.06
2022-11-10T12:40:20.789Z,101937.22
2022-11-10T12:43:22.769Z,101932.66
2022-11-10T12:46:12.549Z,101941.75
2022-11-10T12:49:19.473Z,101943.69
2022-11-10T12:52:19.245Z,101940.94
2022-11-10T12:55:04.660Z,101942.06
2022-11-10T12:57:49.845Z,101953.56
2022-11-10T13:00:54.771Z,101948.19
2022-11-10T13:03:52.559Z,101962.00
2022-11-10T13:06:45.563Z,101962.31
2022-11-10T13:09:36.448Z,101956.97
2022-11-10T13:12:23.372Z,101969.38
2022-11-10T13:15:39.580Z,101971.28
2022-11-10T13:18:44.557Z,101973.84
2022-11-10T13:21:51.382Z,101973.81
2022-11-10T13:24:38.787Z,101976.38
2022-11-10T13:27:33.209Z,101972.72
2022-11-10T13:30:45.464Z,101975.84
2022-11-10T13:33:35.629Z,101986.47
2022-11-10T13:36:53.418Z,101993.56
2022-11-10T13:39:39.470Z,101991.84
2022-11-10T13:42:24.599Z,101993.00
2022-11-10T13:45:32.470Z,101987.91
2022-11-10T13:48:17.427Z,101982.00
2022-11-10T13:51:30.305Z,101978.59
2022-11-10T13:54:33.204Z,101985.38
2022-11-10T13:57:27.511Z,101977.72
2022-11-10T14:00:18.645Z,101991.84
2022-11-10T14:03:04.882Z,101994.94
2022-11-10T14:06:06.421Z,102003.69
2022-11-10T14:09:05.368Z,102006.53
2022-11-10T14:11:55.303Z,102019.53
2022-11-10T14:14:52.477Z,102021.78
2022-11-10T14:17:50.381Z,102018.06
2022-11-10T14:20:41.718Z,102032.81
2022-11-10T14:23:33.504Z,102030.84
2022-11-10T14:26:30.245Z,102028.53
2022-11-10T14:29:28.411Z,102024.34
2022-11-10T14:32:22.263Z,102031.94
2022-11-10T14:35:19.393Z,102034.50
2022-11-10T14:38:07.235Z,102037.31
2022-11-10T14:40:56.540Z,102038.47
2022-11-10T14:43:41.425Z,102046.34
2022-11-10T14:46:26.346Z,102047.50
2022-11-10T14:49:11.340Z,102045.78
2022-11-10T14:51:59.075Z,102063.84
2022-11-10T14:54:46.384Z,102067.81
2022-11-10T14:57:31.309Z,102066.09
2022-11-10T15:00:25.302Z,102083.00
2022-11-10T15:03:30.899Z,102077.66
2022-11-10T15:06:16.267Z,102082.72
2022-11-10T15:09:16.971Z,102087.00
2022-11-10T15:12:26.181Z,102083.88
2022-11-10T15:15:19.665Z,102095.44
2022-11-10T15:18:05.313Z,102086.41
2022-11-10T15:21:05.591Z,102094.56
2022-11-10T15:23:55.709Z,102089.50
2022-11-10T15:26:41.458Z,102092.03
2022-11-10T15:29:29.137Z,102096.25
2022-11-10T15:32:16.336Z,102103.31
2022-11-10T15:35:10.582Z,102104.41
2022-11-10T15:38:05.500Z,102099.28
2022-11-10T15:40:52.650Z,102110.56
2022-11-10T15:43:37.582Z,102110.19
2022-11-10T15:46:25.796Z,102113.38
2022-11-10T15:49:24.317Z,102122.34
2022-11-10T15:52:17.299Z,102116.94
2022-11-10T15:55:02.464Z,102109.88
2022-11-10T15:57:47.418Z,102108.47
2022-11-10T16:00:32.444Z,102108.50
2022-11-10T16:03:20.008Z,102103.66
2022-11-10T16:06:05.254Z,102105.88
2022-11-10T16:08:50.314Z,102103.59
2022-11-10T16:11:38.243Z,102108.34
2022-11-10T16:14:23.389Z,102107.25
2022-11-10T16:17:11.011Z,102105.78
2022-11-10T16:19:56.267Z,102108.63
2022-11-10T16:22:41.197Z,102105.44
2022-11-10T16:25:27.869Z,102115.84
2022-11-10T16:28:19.523Z,102118.06
2022-11-10T16:31:05.757Z,102123.34
2022-11-10T16:33:50.760Z,102134.88
2022-11-10T16:36:35.727Z,102150.34
2022-11-10T16:39:20.876Z,102163.50
2022-11-10T16:42:06.244Z,102168.56
2022-11-10T16:44:51.110Z,102167.13
2022-11-10T16:47:36.048Z,102172.97
2022-11-10T16:50:31.812Z,102176.94
2022-11-10T16:53:20.221Z,102170.66
2022-11-10T16:56:05.616Z,102161.88
2022-11-10T16:58:50.694Z,102168.34
2022-11-10T17:01:37.532Z,102161.28
2022-11-10T17:04:22.730Z,102157.19
2022-11-10T17:07:14.645Z,102165.59
2022-11-10T17:10:01.387Z,102158.84
2022-11-10T17:12:46.786Z,102168.63
2022-11-10T17:15:32.477Z,102177.66
2022-11-10T17:18:20.648Z,102182.41
2022-11-10T17:21:07.090Z,102183.03
2022-11-10T17:23:52.462Z,102188.06
2022-11-10T17:26:37.582Z,102212.25
2022-11-10T17:29:23.715Z,102214.00
2022-11-10T17:32:08.961Z,102216.81
2022-11-10T17:34:53.956Z,102223.59
2022-11-10T17:37:40.189Z,102225.78
2022-11-10T17:40:27.726Z,102237.06
2022-11-10T17:43:13.822Z,102230.66
2022-11-10T17:45:58.844Z,102223.00
2022-11-10T17:48:44.307Z,102225.88
2022-11-10T17:51:33.104Z,102219.16
2022-11-10T17:54:18.115Z,102224.78
2022-11-10T17:57:04.437Z,102229.31
2022-11-10T17:59:49.195Z,102232.31
2022-11-10T18:02:34.209Z,102224.78
2022-11-10T18:05:19.065Z,102234.66
2022-11-10T18:08:04.003Z,102214.06
2022-11-10T18:10:51.851Z,102225.72
2022-11-10T18:13:41.088Z,102218.13
2022-11-10T18:16:27.025Z,102216.13
2022-11-10T18:19:12.253Z,102208.53
2022-11-10T18:21:57.242Z,102200.13
2022-11-10T18:24:42.674Z,102209.97
2022-11-10T18:27:28.265Z,102218.38
2022-11-10T18:30:16.934Z,102219.59
2022-11-10T18:33:03.061Z,102226.06
2022-11-10T18:35:48.129Z,102221.53
2022-11-10T18:38:33.030Z,102229.75
2022-11-10T18:41:36.650Z,102230.28
2022-11-10T18:44:21.752Z,102232.81
2022-11-10T18:47:07.849Z,102233.41
2022-11-10T18:49:52.743Z,102236.75
2022-11-10T18:52:37.578Z,102247.44
2022-11-10T18:55:22.637Z,102246.03
2022-11-10T18:58:07.526Z,102250.28
2022-11-10T19:00:52.388Z,102248.91
2022-11-10T19:03:37.622Z,102246.38
2022-11-10T19:06:22.834Z,102255.91
2022-11-10T19:09:08.389Z,102247.72
2022-11-10T19:11:53.608Z,102251.97
2022-11-10T19:14:38.526Z,102257.84
2022-11-10T19:17:23.356Z,102269.34
2022-11-10T19:20:10.150Z,102272.16
2022-11-10T19:22:55.075Z,102270.56
2022-11-10T19:25:39.958Z,102261.53
2022-11-10T19:28:24.803Z,102268.78
2022-11-10T19:31:12.098Z,102281.47
2022-11-10T19:33:57.688Z,102276.19
2022-11-10T19:36:42.609Z,102281.28
2022-11-10T19:39:27.616Z,102262.41
2022-11-10T19:42:12.545Z,102254.28
2022-11-10T19:44:58.026Z,102256.16
2022-11-10T19:47:43.561Z,102262.06
2022-11-10T19:50:28.727Z,102266.81
2022-11-10T19:53:15.774Z,102266.28
2022-11-10T19:56:06.988Z,102261.53
2022-11-10T19:58:52.057Z,102279.78
2022-11-10T20:01:37.550Z,102277.56
2022-11-10T20:04:23.011Z,102273.88
2022-11-10T20:07:40.503Z,102281.75
2022-11-10T20:10:25.443Z,102287.88
2022-11-10T20:13:11.520Z,102289.25
2022-11-10T20:15:56.460Z,102283.63
2022-11-10T20:18:41.692Z,102294.09
2022-11-10T20:21:27.493Z,102294.59
2022-11-10T20:24:12.853Z,102303.56
2022-11-10T20:26:58.007Z,102310.63
2022-11-10T20:29:43.193Z,102305.53
2022-11-10T20:32:28.542Z,102315.69
2022-11-10T20:35:13.437Z,102319.00
2022-11-10T20:37:58.280Z,102324.97
2022-11-10T20:40:44.845Z,102323.84
2022-11-10T20:43:33.122Z,102328.31
2022-11-10T20:46:52.726Z,102331.91
2022-11-10T20:49:25.492Z,102338.25
2022-11-10T20:52:10.427Z,102334.34
2022-11-10T20:54:55.398Z,102343.88
2022-11-10T20:57:40.239Z,102343.03
2022-11-10T21:00:25.305Z,102347.81
2022-11-10T21:03:10.067Z,102356.06
2022-11-10T21:05:55.712Z,102356.41
2022-11-10T21:08:40.812Z,102360.78
2022-11-10T21:11:44.552Z,102359.34
2022-11-10T21:14:29.634Z,102360.00
2022-11-10T21:17:14.662Z,102366.81
2022-11-10T21:19:59.550Z,102360.97
2022-11-10T21:22:44.513Z,102363.38
2022-11-10T21:25:29.398Z,102353.00
2022-11-10T21:28:14.313Z,102355.28
2022-11-10T21:31:03.953Z,102353.38
2022-11-10T21:33:48.978Z,102348.59
2022-11-10T21:36:34.293Z,102349.72
2022-11-10T21:39:19.139Z,102341.06
2022-11-10T21:42:04.475Z,102342.78
2022-11-10T21:44:49.301Z,102340.31
2022-11-10T21:47:34.275Z,102342.47
2022-11-10T21:50:19.292Z,102337.72
2022-11-10T21:53:08.222Z,102339.63
2022-11-10T21:56:01.229Z,102342.16
2022-11-10T21:58:46.453Z,102344.75
2022-11-10T22:01:31.447Z,102338.13
2022-11-10T22:04:16.713Z,102343.88
2022-11-10T22:07:20.429Z,102346.69
2022-11-10T22:10:24.323Z,102348.88
2022-11-10T22:13:38.339Z,102358.97
2022-11-10T22:16:46.717Z,102353.53
2022-11-10T22:19:33.251Z,102350.78
2022-11-10T22:22:18.213Z,102360.41
2022-11-10T22:25:03.406Z,102363.97
2022-11-10T22:27:48.658Z,102373.94
2022-11-10T22:30:33.742Z,102371.38
2022-11-10T22:33:27.584Z,102381.41
2022-11-10T22:36:15.519Z,102379.72
2022-11-10T22:39:03.810Z,102380.16
2022-11-10T22:42:07.683Z,102379.78
2022-11-10T22:44:52.711Z,102385.41
2022-11-10T22:47:57.576Z,102389.66
2022-11-10T22:50:42.745Z,102398.84
2022-11-10T22:53:27.677Z,102393.81
2022-11-10T22:56:12.803Z,102393.38
2022-11-10T22:59:00.102Z,102390.16
2022-11-10T23:01:45.920Z,102383.00
2022-11-10T23:04:31.065Z,102387.94
2022-11-10T23:07:16.019Z,102388.44
2022-11-10T23:10:00.798Z,102388.31
2022-11-10T23:12:45.647Z,102391.97
2022-11-10T23:15:34.454Z,102396.47
2022-11-10T23:18:19.893Z,102402.47
2022-11-10T23:21:08.111Z,102407.84
2022-11-10T23:23:53.737Z,102409.88
2022-11-10T23:26:38.566Z,102399.75
2022-11-10T23:29:23.427Z,102400.34
2022-11-10T23:32:08.269Z,102404.41
2022-11-10T23:34:53.183Z,102407.19
2022-11-10T23:37:38.076Z,102403.66
2022-11-10T23:40:23.008Z,102404.66
2022-11-10T23:43:07.935Z,102406.97
2022-11-10T23:46:06.335Z,102414.31
2022-11-10T23:48:52.156Z,102406.16
2022-11-10T23:51:37.030Z,102404.75
2022-11-10T23:54:22.041Z,102407.44
2022-11-10T23:57:06.887Z,102415.78
2022-11-10T23:59:51.728Z,102410.09
